<?xml version="1.0" encoding="UTF-8" standalone="no" ?>
<gpx xmlns="http://www.topografix.com/GPX/1/1" xmlns:xsi="http://www.w3.org/2001/XMLSchema-instance" xsi:schemaLocation="http://www.topografix.com/GPX/1/1 http://www.topografix.com/GPX/1/1/gpx.xsd" version="1.1" creator="VisuGPX - https://www.visugpx.com">
  <metadata>
    <name>mega parcours rouge</name>
  </metadata>
  <trk>
    <name><![CDATA[mega parcours rouge_1]]></name>
    <trkseg>
      <trkpt lat="47.62849" lon="6.54607">
        <ele>309</ele>
        <time>2020-12-10T18:39:43+01:00</time>
      </trkpt>
      <trkpt lat="47.62849" lon="6.54607">
        <ele>309</ele>
        <time>2020-12-10T18:39:43+01:00</time>
      </trkpt>
      <trkpt lat="47.62849" lon="6.54607">
        <ele>309</ele>
        <time>2020-12-10T18:39:43+01:00</time>
      </trkpt>
      <trkpt lat="47.62852" lon="6.54745">
        <ele>311</ele>
        <time>2020-12-10T18:39:43+01:00</time>
      </trkpt>
      <trkpt lat="47.62881" lon="6.54929">
        <ele>312</ele>
        <time>2020-12-10T18:39:43+01:00</time>
      </trkpt>
      <trkpt lat="47.6287" lon="6.55062">
        <ele>311</ele>
        <time>2020-12-10T18:39:43+01:00</time>
      </trkpt>
      <trkpt lat="47.62896" lon="6.55071">
        <ele>310</ele>
        <time>2020-12-10T18:39:43+01:00</time>
      </trkpt>
      <trkpt lat="47.6298" lon="6.55247">
        <ele>298</ele>
        <time>2020-12-10T18:39:43+01:00</time>
      </trkpt>
      <trkpt lat="47.62936" lon="6.55371">
        <ele>292</ele>
        <time>2020-12-10T18:39:43+01:00</time>
      </trkpt>
      <trkpt lat="47.62988" lon="6.55517">
        <ele>295</ele>
        <time>2020-12-10T18:39:43+01:00</time>
      </trkpt>
      <trkpt lat="47.63049" lon="6.55573">
        <ele>297</ele>
        <time>2020-12-10T18:39:43+01:00</time>
      </trkpt>
      <trkpt lat="47.63052" lon="6.55612">
        <ele>297</ele>
        <time>2020-12-10T18:39:43+01:00</time>
      </trkpt>
      <trkpt lat="47.6311" lon="6.55727">
        <ele>303</ele>
        <time>2020-12-10T18:39:44+01:00</time>
      </trkpt>
      <trkpt lat="47.63182" lon="6.56062">
        <ele>308</ele>
        <time>2020-12-10T18:39:44+01:00</time>
      </trkpt>
      <trkpt lat="47.63194" lon="6.56221">
        <ele>299</ele>
        <time>2020-12-10T18:39:44+01:00</time>
      </trkpt>
      <trkpt lat="47.63257" lon="6.56255">
        <ele>297</ele>
        <time>2020-12-10T18:39:44+01:00</time>
      </trkpt>
      <trkpt lat="47.63373" lon="6.56251">
        <ele>311</ele>
        <time>2020-12-10T18:39:45+01:00</time>
      </trkpt>
      <trkpt lat="47.63463" lon="6.56427">
        <ele>297</ele>
        <time>2020-12-10T18:39:45+01:00</time>
      </trkpt>
      <trkpt lat="47.63538" lon="6.56457">
        <ele>299</ele>
        <time>2020-12-10T18:39:45+01:00</time>
      </trkpt>
      <trkpt lat="47.63471" lon="6.56543">
        <ele>297</ele>
        <time>2020-12-10T18:39:46+01:00</time>
      </trkpt>
      <trkpt lat="47.63538" lon="6.56642">
        <ele>307</ele>
        <time>2020-12-10T18:39:46+01:00</time>
      </trkpt>
      <trkpt lat="47.63665" lon="6.56599">
        <ele>323</ele>
        <time>2020-12-10T18:39:46+01:00</time>
      </trkpt>
      <trkpt lat="47.63795" lon="6.5644">
        <ele>321</ele>
        <time>2020-12-10T18:39:47+01:00</time>
      </trkpt>
      <trkpt lat="47.63986" lon="6.56466">
        <ele>311</ele>
        <time>2020-12-10T18:39:47+01:00</time>
      </trkpt>
      <trkpt lat="47.64119" lon="6.56345">
        <ele>303</ele>
        <time>2020-12-10T18:39:48+01:00</time>
      </trkpt>
      <trkpt lat="47.6455" lon="6.5771">
        <ele>306</ele>
        <time>2020-12-10T18:39:48+01:00</time>
      </trkpt>
      <trkpt lat="47.64599" lon="6.57753">
        <ele>306</ele>
        <time>2020-12-10T18:39:49+01:00</time>
      </trkpt>
      <trkpt lat="47.64504" lon="6.57792">
        <ele>301</ele>
        <time>2020-12-10T18:39:50+01:00</time>
      </trkpt>
      <trkpt lat="47.64452" lon="6.5777">
        <ele>300</ele>
        <time>2020-12-10T18:39:51+01:00</time>
      </trkpt>
      <trkpt lat="47.64301" lon="6.57959">
        <ele>307</ele>
        <time>2020-12-10T18:39:51+01:00</time>
      </trkpt>
      <trkpt lat="47.64293" lon="6.58015">
        <ele>312</ele>
        <time>2020-12-10T18:39:52+01:00</time>
      </trkpt>
      <trkpt lat="47.64113" lon="6.58272">
        <ele>327</ele>
        <time>2020-12-10T18:39:53+01:00</time>
      </trkpt>
      <trkpt lat="47.64113" lon="6.59071">
        <ele>339</ele>
        <time>2020-12-10T18:39:54+01:00</time>
      </trkpt>
      <trkpt lat="47.64041" lon="6.59062">
        <ele>337</ele>
        <time>2020-12-10T18:39:55+01:00</time>
      </trkpt>
      <trkpt lat="47.63836" lon="6.60139">
        <ele>347</ele>
        <time>2020-12-10T18:39:56+01:00</time>
      </trkpt>
      <trkpt lat="47.63766" lon="6.61199">
        <ele>353</ele>
        <time>2020-12-10T18:39:57+01:00</time>
      </trkpt>
      <trkpt lat="47.63769" lon="6.61448">
        <ele>359</ele>
        <time>2020-12-10T18:39:59+01:00</time>
      </trkpt>
      <trkpt lat="47.63778" lon="6.61469">
        <ele>360</ele>
        <time>2020-12-10T18:40:00+01:00</time>
      </trkpt>
      <trkpt lat="47.63642" lon="6.61714">
        <ele>351</ele>
        <time>2020-12-10T18:40:01+01:00</time>
      </trkpt>
      <trkpt lat="47.63581" lon="6.6165">
        <ele>344</ele>
        <time>2020-12-10T18:40:02+01:00</time>
      </trkpt>
      <trkpt lat="47.63575" lon="6.61744">
        <ele>338</ele>
        <time>2020-12-10T18:40:04+01:00</time>
      </trkpt>
      <trkpt lat="47.63552" lon="6.61723">
        <ele>337</ele>
        <time>2020-12-10T18:40:05+01:00</time>
      </trkpt>
      <trkpt lat="47.63535" lon="6.61607">
        <ele>330</ele>
        <time>2020-12-10T18:40:07+01:00</time>
      </trkpt>
      <trkpt lat="47.63497" lon="6.61564">
        <ele>320</ele>
        <time>2020-12-10T18:40:08+01:00</time>
      </trkpt>
      <trkpt lat="47.63468" lon="6.61637">
        <ele>320</ele>
        <time>2020-12-10T18:40:09+01:00</time>
      </trkpt>
      <trkpt lat="47.63442" lon="6.61637">
        <ele>322</ele>
        <time>2020-12-10T18:40:11+01:00</time>
      </trkpt>
      <trkpt lat="47.63382" lon="6.61422">
        <ele>321</ele>
        <time>2020-12-10T18:40:12+01:00</time>
      </trkpt>
      <trkpt lat="47.63225" lon="6.61594">
        <ele>359</ele>
        <time>2020-12-10T18:40:14+01:00</time>
      </trkpt>
    </trkseg>
  </trk>
</gpx>